Time;durP1;ratioP1;P1;durP2;ratioP2;P2;SDS_P1;SDS_P2;PMS_P1;PMS_P2;Temp;Humidity;BMP_temperature;BMP_pressure;BME280_temperature;BME280_humidity;BME280_pressure;Samples;Min_cycle;Max_cycle;Signal;HPM_P1;HPM_P2
2022/10/08 00:01:24;;;;;;;26.95;18.85;;;;;;;18.64;67.56;101663.44;5024042;28;20072;-82
2022/10/08 00:03:55;;;;;;;24.08;19.05;;;;;;;18.20;67.74;101610.69;5023582;28;20049;-82
2022/10/08 00:06:30;;;;;;;26.38;20.75;;;;;;;18.45;67.78;101657.34;5040708;28;20049;-81
2022/10/08 00:09:03;;;;;;;22.65;19.02;;;;;;;18.39;67.80;101644.53;5040344;28;20144;-82
2022/10/08 00:11:42;;;;;;;23.90;19.08;;;;;;;18.29;68.14;101625.84;5025924;28;20140;-82
2022/10/08 00:14:18;;;;;;;27.13;19.73;;;;;;;18.29;68.34;101630.38;5040693;28;20203;-83
2022/10/08 00:16:44;;;;;;;21.83;18.90;;;;;;;18.29;67.79;101625.00;5024807;28;20079;-81
2022/10/08 00:19:15;;;;;;;24.77;19.65;;;;;;;17.53;67.72;101500.41;5025565;28;20081;-81
2022/10/08 00:21:43;;;;;;;26.35;18.83;;;;;;;18.54;68.05;101669.81;5040816;28;20053;-81
2022/10/08 00:24:17;;;;;;;25.95;19.23;;;;;;;18.20;67.72;101605.31;5024608;28;20064;-82
2022/10/08 00:26:45;;;;;;;20.60;18.45;;;;;;;18.57;67.73;101663.28;5024415;28;20049;-83
2022/10/08 00:29:17;;;;;;;22.27;18.17;;;;;;;18.63;67.36;101659.91;5040914;28;20495;-84
2022/10/08 00:31:46;;;;;;;28.48;18.65;;;;;;;18.63;67.33;101657.22;5040533;28;20054;-83
2022/10/08 00:34:17;;;;;;;25.98;19.60;;;;;;;18.42;67.25;101613.78;5026209;28;20049;-82
2022/10/08 00:36:46;;;;;;;23.77;17.97;;;;;;;18.46;67.10;101625.91;5028118;28;20057;-82
2022/10/08 00:39:15;;;;;;;24.98;18.20;;;;;;;17.33;67.18;101435.41;5029149;28;20684;-80
2022/10/08 00:41:44;;;;;;;21.02;18.70;;;;;;;18.52;67.10;101626.13;5027612;28;20053;-80
2022/10/08 00:44:49;;;;;;;21.33;18.50;;;;;;;18.62;66.92;101646.63;5029349;28;20140;-81
2022/10/08 00:47:39;;;;;;;24.75;19.15;;;;;;;18.38;67.23;101626.72;5027908;28;20081;-82
2022/10/08 00:50:23;;;;;;;26.80;20.05;;;;;;;18.56;67.70;101646.28;5029162;28;20050;-81
2022/10/08 00:52:57;;;;;;;22.00;18.75;;;;;;;17.98;67.47;101553.00;5027747;28;20149;-82
2022/10/08 00:55:26;;;;;;;21.05;18.17;;;;;;;18.58;67.15;101652.31;5027530;28;20069;-82
2022/10/08 00:58:00;;;;;;;22.45;17.15;;;;;;;18.43;67.08;101620.88;5027590;28;20057;-82
2022/10/08 01:00:27;;;;;;;26.48;17.65;;;;;;;18.60;67.50;101635.22;5028791;28;20152;-82
2022/10/08 01:02:54;;;;;;;20.95;17.88;;;;;;;18.45;67.23;101619.69;5026641;28;20385;-83
2022/10/08 01:05:43;;;;;;;21.85;17.83;;;;;;;18.57;67.17;101634.53;5026947;28;20049;-82
2022/10/08 01:08:14;;;;;;;24.95;17.45;;;;;;;18.53;67.54;101635.00;5027396;28;20056;-82
2022/10/08 01:10:52;;;;;;;20.85;17.88;;;;;;;18.53;67.55;101635.84;5027333;28;20293;-81
2022/10/08 01:13:40;;;;;;;23.73;18.73;;;;;;;18.52;67.87;101626.13;5027077;28;20168;-81
2022/10/08 01:16:23;;;;;;;21.10;18.35;;;;;;;18.49;68.22;101626.41;5026801;28;20496;-82
2022/10/08 01:19:14;;;;;;;25.30;17.33;;;;;;;18.45;67.90;101619.69;5028205;28;20041;-83
2022/10/08 01:22:11;;;;;;;27.65;19.52;;;;;;;17.52;67.96;101482.59;5031780;28;20104;-82
2022/10/08 01:27:53;;;;;;;22.77;18.35;;;;;;;18.30;67.94;101605.19;5032847;28;20084;-81
2022/10/08 01:30:20;;;;;;;20.73;17.95;;;;;;;18.28;68.25;101607.22;5033728;28;20132;-82
2022/10/08 01:32:55;;;;;;;27.27;17.85;;;;;;;18.22;68.12;101591.72;5041004;28;20553;-83
2022/10/08 01:35:32;;;;;;;25.20;18.25;;;;;;;18.30;68.69;101618.63;5038310;28;20049;-82
2022/10/08 01:38:03;;;;;;;24.63;17.48;;;;;;;18.29;68.73;101620.47;5031963;28;20073;-82
2022/10/08 01:40:36;;;;;;;23.90;16.98;;;;;;;18.30;68.37;101613.25;5031759;28;20073;-83
2022/10/08 01:43:06;;;;;;;23.45;18.75;;;;;;;18.12;68.29;101576.56;5028000;28;20406;-81
2022/10/08 01:45:38;;;;;;;24.63;19.43;;;;;;;18.10;68.06;101567.81;5027260;28;20056;-82
2022/10/08 01:48:11;;;;;;;23.95;17.58;;;;;;;18.11;67.73;101574.06;5029039;28;20304;-81
2022/10/08 01:50:50;;;;;;;28.77;18.25;;;;;;;18.30;67.93;101591.75;5029738;28;20460;-83
2022/10/08 01:53:20;;;;;;;23.02;18.77;;;;;;;18.17;68.49;101572.56;5026514;28;20064;-82
2022/10/08 01:55:54;;;;;;;22.45;17.70;;;;;;;18.09;68.57;101566.16;5026206;28;20061;-83
2022/10/08 01:58:30;;;;;;;28.80;17.35;;;;;;;18.19;68.59;101581.31;5026147;28;20502;-80
2022/10/08 02:01:07;;;;;;;21.05;16.92;;;;;;;18.06;68.29;101555.75;5025994;28;20146;-80
2022/10/08 02:03:34;;;;;;;20.73;17.25;;;;;;;18.20;68.66;101578.44;5025446;28;20065;-84
2022/10/08 02:06:04;;;;;;;23.02;18.33;;;;;;;18.12;68.05;101564.97;5025963;28;20049;-82
2022/10/08 02:08:31;;;;;;;21.38;18.23;;;;;;;18.08;68.19;101552.88;5026049;28;20438;-81
2022/10/08 02:10:57;;;;;;;21.05;17.48;;;;;;;17.93;67.90;101533.84;5042208;28;20479;-82
2022/10/08 02:13:26;;;;;;;24.27;18.30;;;;;;;18.23;67.99;101577.28;5025961;28;20428;-83
2022/10/08 02:16:03;;;;;;;21.48;16.83;;;;;;;18.26;68.20;101574.28;5025586;28;20049;-82
2022/10/08 02:18:41;;;;;;;25.10;18.52;;;;;;;18.11;68.71;101566.84;5025980;28;20041;-82
2022/10/08 02:21:18;;;;;;;28.05;17.88;;;;;;;18.00;68.47;101547.47;5025644;28;20075;-82
2022/10/08 02:24:00;;;;;;;26.50;17.98;;;;;;;18.11;68.75;101574.91;5026983;28;20064;-82
2022/10/08 02:26:34;;;;;;;25.63;18.30;;;;;;;18.10;68.63;101578.56;5025041;28;20315;-82
2022/10/08 02:29:05;;;;;;;21.33;18.45;;;;;;;16.85;68.54;101377.81;5025605;28;20236;-82
2022/10/08 02:32:00;;;;;;;24.35;18.80;;;;;;;17.30;68.33;101460.69;5025632;28;20045;-81
2022/10/08 02:34:38;;;;;;;28.25;19.83;;;;;;;18.04;68.26;101568.50;5025513;28;20068;-80
2022/10/08 02:37:12;;;;;;;23.45;18.48;;;;;;;16.78;68.73;101372.22;5027033;28;20284;-82
2022/10/08 02:39:42;;;;;;;21.50;17.23;;;;;;;18.01;68.59;101574.19;5025500;28;20049;-83
2022/10/08 02:42:14;;;;;;;29.93;19.60;;;;;;;17.99;68.82;101565.44;5026866;28;20077;-81
2022/10/08 02:44:48;;;;;;;23.17;18.17;;;;;;;17.65;68.54;101517.94;5025073;28;20100;-83
2022/10/08 02:47:19;;;;;;;24.70;17.52;;;;;;;17.93;68.89;101568.75;5025301;28;20046;-82
2022/10/08 02:49:52;;;;;;;24.85;16.73;;;;;;;17.92;68.99;101559.88;5025363;28;20045;-81
2022/10/08 02:52:21;;;;;;;22.77;18.50;;;;;;;17.92;69.02;101559.03;5024962;28;20045;-82
2022/10/08 02:54:50;;;;;;;20.85;18.10;;;;;;;17.44;69.28;101474.53;5024620;28;20411;-81
2022/10/08 02:57:30;;;;;;;27.90;18.55;;;;;;;17.61;68.67;101497.75;5024794;28;20359;-81
2022/10/08 02:59:58;;;;;;;26.08;18.13;;;;;;;17.96;68.59;101549.63;5025138;28;20141;-81
2022/10/08 03:02:35;;;;;;;22.75;18.42;;;;;;;17.96;68.59;101546.94;5041125;28;20057;-83
2022/10/08 03:05:07;;;;;;;20.02;17.25;;;;;;;17.85;69.05;101537.34;5041411;28;20498;-81
2022/10/08 03:07:34;;;;;;;19.00;16.83;;;;;;;17.89;68.82;101554.00;5041458;28;20057;-81
2022/10/08 03:10:05;;;;;;;23.58;17.85;;;;;;;17.87;68.91;101551.47;5024573;28;20055;-82
2022/10/08 03:12:32;;;;;;;20.52;18.13;;;;;;;17.77;68.90;101539.09;5024803;28;20107;-82
2022/10/08 03:15:00;;;;;;;23.58;17.88;;;;;;;17.19;68.58;101455.63;5024782;28;20053;-82
2022/10/08 03:17:35;;;;;;;19.25;16.90;;;;;;;17.87;68.36;101556.00;5041099;28;20144;-81
2022/10/08 03:20:04;;;;;;;26.38;17.77;;;;;;;17.54;68.57;101498.56;5024545;28;20049;-81
2022/10/08 03:22:32;;;;;;;23.05;17.38;;;;;;;17.92;68.70;101564.41;5041019;28;20080;-81
2022/10/08 03:24:59;;;;;;;20.55;16.33;;;;;;;17.86;68.56;101554.28;5025753;28;20049;-82
2022/10/08 03:27:26;;;;;;;19.30;16.80;;;;;;;17.97;68.82;101561.25;5024563;28;20279;-83
2022/10/08 03:29:56;;;;;;;20.38;15.18;;;;;;;17.76;68.75;101529.38;5024495;28;20072;-82
2022/10/08 03:32:23;;;;;;;21.35;17.35;;;;;;;17.92;68.85;101564.41;5024334;28;20598;-82
2022/10/08 03:34:50;;;;;;;23.90;16.23;;;;;;;17.82;68.54;101553.78;5040928;28;20050;-82
2022/10/08 03:37:18;;;;;;;20.63;15.50;;;;;;;17.79;68.88;101545.16;5037752;28;20052;-81
2022/10/08 03:39:44;;;;;;;23.13;16.80;;;;;;;17.86;69.02;101573.94;5025690;28;20060;-82
2022/10/08 03:42:11;;;;;;;20.17;16.90;;;;;;;17.86;68.87;101571.25;5040847;28;20446;-83
2022/10/08 03:44:38;;;;;;;21.98;17.48;;;;;;;17.86;69.39;101573.09;5024495;28;20055;-82
2022/10/08 03:47:05;;;;;;;21.40;15.88;;;;;;;17.81;69.11;101567.38;5024924;28;20088;-82
2022/10/08 03:49:31;;;;;;;22.02;16.67;;;;;;;17.66;69.26;101538.38;5026879;28;20289;-82
2022/10/08 03:51:58;;;;;;;22.65;16.50;;;;;;;17.70;68.99;101547.81;5028149;28;20263;-81
2022/10/08 03:54:24;;;;;;;18.85;15.35;;;;;;;17.69;69.06;101550.66;5025231;28;20041;-82
2022/10/08 03:56:51;;;;;;;24.25;16.52;;;;;;;17.79;69.07;101563.97;5041030;28;20045;-81
2022/10/08 03:59:17;;;;;;;20.00;16.45;;;;;;;16.98;69.13;101439.88;5041199;28;20051;-81
2022/10/08 04:01:44;;;;;;;21.65;16.48;;;;;;;17.66;69.56;101549.13;5024561;28;20054;-82
2022/10/08 04:04:11;;;;;;;25.25;16.88;;;;;;;17.73;69.59;101568.97;5024629;28;20065;-81
2022/10/08 04:06:37;;;;;;;19.38;16.70;;;;;;;17.57;69.32;101546.56;5024284;28;20426;-82
2022/10/08 04:09:04;;;;;;;20.20;16.63;;;;;;;17.51;69.63;101534.63;5026248;28;20556;-83
2022/10/08 04:11:32;;;;;;;20.75;17.17;;;;;;;17.62;69.55;101566.59;5028401;28;20046;-82
2022/10/08 04:13:59;;;;;;;24.85;17.30;;;;;;;17.51;69.69;101548.06;5044502;28;20111;-81
2022/10/08 04:16:31;;;;;;;26.30;17.70;;;;;;;17.35;69.80;101530.00;5044738;28;20045;-79
2022/10/08 04:19:02;;;;;;;20.92;16.73;;;;;;;17.20;69.75;101508.25;5028301;28;20497;-82
2022/10/08 04:21:30;;;;;;;19.60;16.15;;;;;;;17.54;69.84;101565.69;5028001;28;20100;-82
2022/10/08 04:23:57;;;;;;;21.38;17.13;;;;;;;17.47;69.91;101568.97;5044318;28;20469;-82
2022/10/08 04:26:23;;;;;;;25.13;18.00;;;;;;;16.95;69.69;101480.44;5028710;28;20110;-82
2022/10/08 04:28:50;;;;;;;22.65;18.00;;;;;;;17.28;70.07;101548.59;5029562;28;20390;-83
2022/10/08 04:31:20;;;;;;;22.08;17.67;;;;;;;17.45;69.94;101567.47;5026988;28;20041;-82
2022/10/08 04:33:48;;;;;;;25.80;18.60;;;;;;;16.05;69.74;101343.00;5027250;28;20140;-83
2022/10/08 04:36:17;;;;;;;22.73;17.17;;;;;;;17.45;69.50;101567.47;5026777;28;20642;-82
2022/10/08 04:38:44;;;;;;;28.73;16.90;;;;;;;17.41;69.76;101558.06;5021161;28;20064;-81
2022/10/08 04:41:25;;;;;;;26.27;17.30;;;;;;;17.24;69.95;101528.44;5026764;28;20041;-81
2022/10/08 04:43:54;;;;;;;20.15;17.55;;;;;;;17.46;69.95;101566.47;5025151;28;20053;-81
2022/10/08 04:46:21;;;;;;;21.58;17.73;;;;;;;17.36;69.72;101546.97;5017994;28;20492;-80
2022/10/08 04:48:55;;;;;;;23.92;17.45;;;;;;;17.45;69.67;101567.47;5007219;28;20077;-82
2022/10/08 04:51:24;;;;;;;19.02;15.95;;;;;;;17.18;69.53;101523.66;5007233;28;20056;-80
2022/10/08 04:53:51;;;;;;;25.25;17.13;;;;;;;16.75;70.02;101452.94;5024008;28;20064;-81
2022/10/08 04:56:21;;;;;;;24.05;18.20;;;;;;;17.26;69.75;101537.16;5023604;28;20056;-81
2022/10/08 04:58:48;;;;;;;23.17;17.73;;;;;;;17.26;70.14;101541.69;5008537;28;20076;-81
2022/10/08 05:01:17;;;;;;;19.38;17.08;;;;;;;17.32;70.22;101551.78;5006912;28;20447;-79
2022/10/08 05:03:46;;;;;;;19.83;17.15;;;;;;;17.32;69.94;101559.84;5007417;28;20313;-81
2022/10/08 05:06:15;;;;;;;20.73;16.42;;;;;;;17.18;70.08;101544.31;5021103;28;20486;-80
2022/10/08 05:08:43;;;;;;;23.52;17.80;;;;;;;16.10;69.61;101369.34;5007231;28;20054;-82
2022/10/08 05:11:10;;;;;;;20.35;17.02;;;;;;;17.34;69.41;101557.00;5008083;28;20436;-81
2022/10/08 05:13:38;;;;;;;18.55;16.33;;;;;;;17.36;69.82;101555.84;5008335;28;20507;-82
2022/10/08 05:16:07;;;;;;;23.33;16.65;;;;;;;17.14;70.00;101525.00;5007029;28;20445;-80
2022/10/08 05:18:35;;;;;;;21.45;15.90;;;;;;;16.73;69.34;101452.25;5011924;28;20052;-81
2022/10/08 05:21:04;;;;;;;19.65;16.77;;;;;;;16.99;69.68;101515.81;5005857;28;20038;-81
2022/10/08 05:23:33;;;;;;;22.80;17.88;;;;;;;17.21;69.49;101550.22;5006846;28;20057;-80
2022/10/08 05:26:09;;;;;;;24.33;18.00;;;;;;;17.24;69.82;101557.94;5006938;28;20500;-80
2022/10/08 05:28:36;;;;;;;21.23;16.58;;;;;;;17.07;69.67;101540.88;5007194;28;20490;-81
2022/10/08 05:31:02;;;;;;;23.88;17.50;;;;;;;17.23;70.08;101575.06;5007040;28;20052;-78
2022/10/08 05:33:29;;;;;;;22.80;16.45;;;;;;;17.20;69.27;101579.88;5007016;28;20057;-81
2022/10/08 05:35:56;;;;;;;21.77;16.95;;;;;;;17.19;69.75;101581.72;5007204;28;20058;-80
2022/10/08 05:38:22;;;;;;;18.00;15.82;;;;;;;17.22;69.92;101577.88;4944236;28;20412;-80
2022/10/08 05:40:49;;;;;;;22.65;17.13;;;;;;;17.08;69.63;101555.13;5006458;28;20156;-81
2022/10/08 05:43:15;;;;;;;20.42;17.27;;;;;;;17.24;70.00;101575.88;5006765;28;20053;-81
2022/10/08 05:45:49;;;;;;;24.25;16.10;;;;;;;17.18;69.55;101566.59;5007865;28;20048;-80
2022/10/08 05:48:15;;;;;;;20.17;16.30;;;;;;;17.18;69.44;101561.25;5024120;28;20058;-80
2022/10/08 05:50:42;;;;;;;19.35;15.95;;;;;;;17.10;69.42;101553.13;5021909;28;20624;-80
2022/10/08 05:53:08;;;;;;;22.83;16.80;;;;;;;17.32;68.81;101581.31;5013639;28;20436;-80
2022/10/08 05:55:35;;;;;;;20.65;15.95;;;;;;;17.05;69.58;101540.19;5011888;28;20273;-79
2022/10/08 05:58:01;;;;;;;34.17;17.17;;;;;;;17.35;69.01;101588.19;5015043;28;20081;-80
2022/10/08 06:00:28;;;;;;;20.45;17.58;;;;;;;17.14;69.12;101554.53;5020473;28;20533;-79
2022/10/08 06:02:55;;;;;;;24.02;16.63;;;;;;;17.38;69.49;101598.63;5035440;28;20057;-79
2022/10/08 06:05:21;;;;;;;24.48;17.17;;;;;;;16.93;69.28;101519.97;5013809;28;20502;-80
2022/10/08 06:07:48;;;;;;;21.63;16.05;;;;;;;17.24;69.35;101575.88;5021077;28;20400;-78
2022/10/08 06:10:14;;;;;;;21.80;17.02;;;;;;;17.32;68.96;101586.66;5022686;28;20060;-80
2022/10/08 06:12:41;;;;;;;25.17;17.08;;;;;;;17.24;69.15;101582.09;5022392;28;20050;-80
2022/10/08 06:15:08;;;;;;;23.23;17.67;;;;;;;17.30;69.62;101592.19;5023746;28;20643;-80
2022/10/08 06:17:34;;;;;;;26.13;18.15;;;;;;;17.35;69.80;101605.13;5017069;28;20046;-81
2022/10/08 06:20:01;;;;;;;23.13;17.85;;;;;;;17.41;69.92;101609.91;5005881;28;20081;-79
2022/10/08 06:22:28;;;;;;;24.65;17.55;;;;;;;17.36;69.47;101584.53;5004862;28;20128;-80
2022/10/08 06:24:54;;;;;;;24.77;18.75;;;;;;;17.24;69.32;101581.25;5006072;28;20085;-80
2022/10/08 06:27:21;;;;;;;26.20;20.08;;;;;;;17.27;69.28;101583.63;5007156;28;20048;-79
2022/10/08 06:29:47;;;;;;;26.83;18.65;;;;;;;17.18;68.96;101566.59;5005931;28;20096;-81
2022/10/08 06:32:14;;;;;;;25.73;19.42;;;;;;;16.49;69.05;101457.44;5005751;28;20464;-79
2022/10/08 06:34:40;;;;;;;26.48;18.98;;;;;;;17.40;69.08;101596.63;5005271;28;20412;-79
2022/10/08 06:37:07;;;;;;;31.15;19.08;;;;;;;17.46;68.31;101612.13;5010748;28;20165;-80
2022/10/08 06:39:34;;;;;;;25.73;18.80;;;;;;;17.53;68.45;101613.16;5025132;28;20057;-82
2022/10/08 06:42:00;;;;;;;27.17;19.77;;;;;;;17.63;67.80;101623.81;5031400;28;20262;-80
2022/10/08 06:44:28;;;;;;;28.92;19.80;;;;;;;17.70;68.39;101620.31;5005418;28;20050;-78
2022/10/08 06:46:57;;;;;;;27.80;19.77;;;;;;;17.75;68.05;101624.38;5005936;28;20050;-81
2022/10/08 06:49:25;;;;;;;29.15;18.92;;;;;;;17.78;68.09;101616.00;5016354;28;20057;-81
2022/10/08 06:51:52;;;;;;;24.30;18.45;;;;;;;17.86;67.61;101616.06;5024206;28;20049;-79
2022/10/08 06:54:18;;;;;;;30.25;18.17;;;;;;;17.80;67.12;101597.91;5024354;28;20049;-80
2022/10/08 06:56:45;;;;;;;26.85;18.77;;;;;;;17.78;66.75;101589.16;5022904;28;20517;-80
2022/10/08 06:59:11;;;;;;;25.42;18.17;;;;;;;17.99;67.19;101619.19;5025297;28;20045;-80
2022/10/08 07:01:38;;;;;;;30.30;18.80;;;;;;;18.10;66.73;101618.88;5015340;28;20042;-80
2022/10/08 07:04:05;;;;;;;31.50;21.48;;;;;;;18.25;65.51;101626.34;5023716;28;20045;-81
2022/10/08 07:06:33;;;;;;;25.05;18.98;;;;;;;18.34;65.99;101628.06;5015125;28;20227;-80
2022/10/08 07:09:01;;;;;;;27.35;18.60;;;;;;;18.35;66.57;101619.00;5023480;28;20053;-80
2022/10/08 07:11:29;;;;;;;28.92;19.52;;;;;;;18.12;66.04;101570.34;5018089;28;20049;-80
2022/10/08 07:13:56;;;;;;;28.15;19.52;;;;;;;18.33;66.11;101599.50;5022456;28;20049;-79
2022/10/08 07:16:25;;;;;;;29.70;18.77;;;;;;;18.69;65.20;101637.75;5021611;28;20708;-81
2022/10/08 07:18:54;;;;;;;23.20;17.52;;;;;;;18.45;64.82;101584.75;5019804;28;20045;-80
2022/10/08 07:21:22;;;;;;;23.77;17.52;;;;;;;18.70;64.78;101611.69;5022889;28;20447;-79
2022/10/08 07:23:49;;;;;;;25.75;18.30;;;;;;;18.79;63.92;101614.25;5018854;28;20133;-81
2022/10/08 07:26:18;;;;;;;22.65;17.98;;;;;;;18.99;63.72;101632.78;5020245;28;20404;-81
2022/10/08 07:28:50;;;;;;;25.63;17.63;;;;;;;18.84;63.72;101597.63;5019655;28;20105;-80
2022/10/08 07:31:21;;;;;;;30.35;18.80;;;;;;;19.07;63.71;101616.63;5024560;28;20068;-80
2022/10/08 07:33:48;;;;;;;25.58;18.00;;;;;;;19.03;63.38;101592.91;5024536;28;20061;-80
2022/10/08 07:36:20;;;;;;;28.00;20.35;;;;;;;19.41;62.37;101627.22;5024295;28;20189;-81
2022/10/08 07:38:47;;;;;;;;;;;;;;;19.32;62.82;101630.09;5006465;28;20053;-80
2022/10/08 07:41:14;;;;;;;30.02;21.55;;;;;;;19.32;63.05;101628.25;5004282;28;19929;-81
2022/10/08 07:43:41;;;;;;;30.48;21.35;;;;;;;19.41;62.28;101632.59;5005296;28;20492;-81
2022/10/08 07:46:10;;;;;;;28.20;20.42;;;;;;;19.40;62.22;101630.94;5007760;28;20055;-81
2022/10/08 07:48:37;;;;;;;27.13;22.20;;;;;;;19.26;63.31;101610.06;5012217;28;20111;-80
2022/10/08 07:51:11;;;;;;;30.98;22.13;;;;;;;19.42;63.69;101634.31;5019465;28;20477;-81
2022/10/08 07:53:39;;;;;;;33.03;22.98;;;;;;;19.06;63.55;101579.16;5014507;28;20439;-80
2022/10/08 07:56:07;;;;;;;36.70;23.90;;;;;;;19.52;62.76;101639.50;5028203;28;20086;-80
2022/10/08 07:58:35;;;;;;;34.22;22.45;;;;;;;19.47;61.77;101606.00;5026867;28;20137;-81
2022/10/08 08:01:05;;;;;;;40.80;24.33;;;;;;;19.48;61.61;101603.16;5027115;28;20119;-80
2022/10/08 08:03:31;;;;;;;41.15;25.92;;;;;;;19.71;61.41;101637.47;5028439;28;20057;-80
2022/10/08 08:06:11;;;;;;;35.45;23.05;;;;;;;19.08;60.54;101524.16;5024205;28;20089;-80
2022/10/08 08:08:40;;;;;;;39.72;23.83;;;;;;;19.69;60.97;101621.50;5036195;28;20049;-81
2022/10/08 08:11:08;;;;;;;32.55;23.00;;;;;;;19.89;60.91;101639.97;5006009;28;20251;-80
2022/10/08 08:13:38;;;;;;;34.70;20.65;;;;;;;19.41;60.45;101549.13;5025104;28;20061;-82
2022/10/08 08:16:11;;;;;;;;;;;;;;;20.04;59.84;101643.63;5010088;28;20581;-82
2022/10/08 08:18:40;;;;;;;29.65;21.80;;;;;;;20.01;60.69;101644.00;5027902;28;19921;-82
2022/10/08 08:21:10;;;;;;;31.63;22.77;;;;;;;19.74;60.15;101600.28;5030952;28;20065;-82
2022/10/08 08:23:42;;;;;;;30.77;23.48;;;;;;;20.08;60.25;101642.28;5028442;28;20165;-81
2022/10/08 08:26:15;;;;;;;29.90;22.45;;;;;;;20.07;60.76;101637.88;5026601;28;20129;-82
2022/10/08 08:28:42;;;;;;;33.30;21.05;;;;;;;20.20;60.16;101643.59;5006758;28;20046;-82
2022/10/08 08:31:30;;;;;;;33.78;22.80;;;;;;;20.31;59.38;101633.44;5007514;28;20053;-82
2022/10/08 08:34:02;;;;;;;30.88;21.33;;;;;;;20.35;59.38;101641.00;5005614;28;20042;-82
2022/10/08 08:36:32;;;;;;;27.00;21.33;;;;;;;20.32;59.51;101627.03;5009336;28;20042;-82
2022/10/08 08:38:59;;;;;;;30.70;22.65;;;;;;;19.97;59.36;101594.97;5006179;28;20583;-80
2022/10/08 08:41:50;;;;;;;31.10;21.35;;;;;;;20.31;60.41;101646.91;5006387;28;20046;-83
2022/10/08 08:44:33;;;;;;;33.40;23.90;;;;;;;20.25;59.91;101618.81;5006328;28;20061;-81
2022/10/08 08:47:18;;;;;;;40.55;26.52;;;;;;;20.61;59.13;101632.63;5007102;28;20744;-81
2022/10/08 08:49:56;;;;;;;38.00;26.58;;;;;;;20.65;59.22;101636.63;5012270;28;20570;-81
2022/10/08 08:52:32;;;;;;;35.83;26.80;;;;;;;20.47;58.54;101584.81;5026939;28;20574;-81
2022/10/08 08:55:00;;;;;;;36.47;25.73;;;;;;;20.81;59.40;101641.09;5030556;28;20402;-78
2022/10/08 08:57:35;;;;;;;40.33;27.08;;;;;;;20.63;58.74;101600.06;5015049;28;20062;-79
2022/10/08 09:00:23;;;;;;;35.45;26.50;;;;;;;21.01;58.94;101640.63;5026557;28;20049;-79
2022/10/08 09:02:56;;;;;;;37.95;26.67;;;;;;;21.22;58.10;101639.97;5025438;28;20219;-80
2022/10/08 09:05:25;;;;;;;36.35;24.92;;;;;;;20.44;57.52;101488.09;5017847;28;20128;-80
2022/10/08 09:08:04;;;;;;;37.50;25.42;;;;;;;21.23;57.37;101596.56;5029509;28;20132;-81
2022/10/08 09:10:53;;;;;;;30.60;21.88;;;;;;;21.60;57.13;101629.19;5026810;28;20073;-79
2022/10/08 09:13:35;;;;;;;33.35;22.45;;;;;;;21.76;56.33;101634.44;5026848;28;20037;-79
2022/10/08 09:16:02;;;;;;;32.05;21.80;;;;;;;21.73;56.96;101616.72;5026650;28;20081;-80
2022/10/08 09:18:29;;;;;;;25.10;19.00;;;;;;;21.79;56.44;101611.59;5027406;28;20056;-81
2022/10/08 09:20:55;;;;;;;28.05;21.60;;;;;;;22.10;56.04;101630.34;5027887;28;20073;-81
2022/10/08 09:23:24;;;;;;;28.75;18.95;;;;;;;21.88;55.57;101578.88;5026428;28;20138;-82
2022/10/08 09:26:30;;;;;;;29.60;20.08;;;;;;;22.40;54.97;101641.97;5026376;28;20516;-80
2022/10/08 09:28:59;;;;;;;31.77;20.50;;;;;;;22.55;54.91;101629.28;5024530;28;20053;-81
2022/10/08 09:31:31;;;;;;;26.10;18.33;;;;;;;22.60;54.91;101621.41;5027935;28;20053;-81
2022/10/08 09:34:04;;;;;;;32.72;21.05;;;;;;;22.76;54.49;101623.03;5026483;28;20052;-81
2022/10/08 09:36:33;;;;;;;31.55;22.00;;;;;;;22.85;54.20;101626.47;5028613;28;20045;-79
2022/10/08 09:39:03;;;;;;;30.77;20.38;;;;;;;22.73;54.35;101593.66;5026363;28;20135;-80
2022/10/08 09:41:29;;;;;;;28.33;20.80;;;;;;;23.01;54.48;101628.94;5026689;28;20042;-79
2022/10/08 09:44:38;;;;;;;32.00;21.13;;;;;;;23.09;53.48;101630.69;5025797;28;20559;-80
2022/10/08 09:47:06;;;;;;;32.78;22.83;;;;;;;23.18;53.74;101634.06;5013066;28;20045;-80
2022/10/08 09:49:34;;;;;;;30.80;23.17;;;;;;;23.04;53.42;101589.81;5022804;28;20044;-79
2022/10/08 09:52:14;;;;;;;26.83;20.30;;;;;;;23.24;53.13;101607.06;5026731;28;20469;-79
2022/10/08 09:54:50;;;;;;;36.00;23.35;;;;;;;23.19;52.15;101576.19;5024680;28;20491;-80
2022/10/08 09:57:19;;;;;;;33.10;23.85;;;;;;;23.63;52.55;101621.94;5034618;28;20518;-79
2022/10/08 09:59:56;;;;;;;29.10;21.70;;;;;;;23.44;51.81;101580.09;5025386;28;20541;-79
2022/10/08 10:02:33;;;;;;;27.90;20.95;;;;;;;23.80;51.18;101605.41;5007864;28;20132;-81
2022/10/08 10:05:04;;;;;;;28.20;20.10;;;;;;;23.76;50.65;101582.44;5003151;28;20451;-81
2022/10/08 10:07:43;;;;;;;30.05;22.08;;;;;;;24.07;50.49;101612.63;5006659;28;20081;-81
2022/10/08 10:10:19;;;;;;;29.77;21.85;;;;;;;24.03;50.65;101573.41;5005810;28;20065;-81
2022/10/08 10:12:50;;;;;;;33.05;22.42;;;;;;;24.30;50.71;101600.66;5005726;28;20064;-80
2022/10/08 10:15:25;;;;;;;33.75;22.92;;;;;;;24.21;50.47;101564.69;5025768;28;20081;-82
2022/10/08 10:18:00;;;;;;;28.30;20.95;;;;;;;24.49;49.67;101597.19;5026483;28;20053;-81
2022/10/08 10:20:40;;;;;;;28.60;20.13;;;;;;;24.65;49.67;101589.69;5026805;28;20419;-81
2022/10/08 10:23:14;;;;;;;26.47;19.47;;;;;;;24.57;48.86;101588.03;5025500;28;20323;-80
2022/10/08 10:25:48;;;;;;;26.85;21.30;;;;;;;24.69;48.83;101589.09;5025593;28;20476;-81
2022/10/08 10:28:38;;;;;;;27.20;21.00;;;;;;;24.62;48.35;101557.53;5025445;28;20620;-80
2022/10/08 10:31:30;;;;;;;24.88;18.95;;;;;;;24.97;48.59;101588.06;5028591;28;20049;-81
2022/10/08 10:34:16;;;;;;;33.60;21.45;;;;;;;25.02;48.07;101571.97;5049958;28;20053;-82
2022/10/08 10:36:57;;;;;;;27.45;20.75;;;;;;;25.28;48.27;101584.75;5031206;28;20045;-82
2022/10/08 10:39:50;;;;;;;32.42;21.67;;;;;;;24.98;47.59;101515.56;5030262;28;20049;-81
2022/10/08 10:42:39;;;;;;;23.98;17.52;;;;;;;24.98;47.80;101515.56;5011839;28;20073;-81
2022/10/08 10:45:35;;;;;;;29.10;20.80;;;;;;;25.36;47.50;101580.97;5023650;28;20053;-81
2022/10/08 10:48:04;;;;;;;26.17;19.48;;;;;;;25.42;47.90;101576.59;5024494;28;20132;-80
2022/10/08 10:50:56;;;;;;;26.98;20.10;;;;;;;25.33;47.42;101540.66;5024716;28;20072;-81
2022/10/08 10:53:42;;;;;;;30.25;20.75;;;;;;;24.98;46.57;101455.81;5023173;28;20042;-81
2022/10/08 10:56:21;;;;;;;25.42;17.88;;;;;;;25.02;46.79;101457.06;5019118;28;20338;-81
2022/10/08 10:59:01;;;;;;;29.45;19.42;;;;;;;25.83;46.35;101564.56;5025745;28;20119;-82
2022/10/08 11:01:53;;;;;;;29.65;19.55;;;;;;;25.86;45.89;101556.03;5023425;28;20057;-82
2022/10/08 11:04:59;;;;;;;28.77;19.88;;;;;;;25.63;45.62;101483.06;5020236;28;20159;-81
2022/10/08 11:07:36;;;;;;;28.80;16.48;;;;;;;26.34;45.47;101548.25;5006961;28;20100;-81
2022/10/08 11:10:29;;;;;;;22.02;17.23;;;;;;;26.49;45.10;101550.69;5024249;28;20403;-81
2022/10/08 11:13:19;;;;;;;23.98;17.80;;;;;;;26.48;44.68;101557.16;5020109;28;20045;-82
2022/10/08 11:16:08;;;;;;;24.45;19.33;;;;;;;25.74;44.39;101447.03;5020285;28;20076;-80
2022/10/08 11:18:46;;;;;;;25.48;18.90;;;;;;;25.91;44.64;101496.38;5027700;28;20050;-81
2022/10/08 11:21:26;;;;;;;26.05;18.83;;;;;;;25.72;45.46;101485.31;5023285;28;20081;-81
2022/10/08 11:24:29;;;;;;;22.83;16.92;;;;;;;25.84;45.86;101520.00;5007905;28;20061;-82
2022/10/08 11:27:10;;;;;;;23.45;17.75;;;;;;;25.65;45.95;101495.38;5028391;28;20041;-82
2022/10/08 11:29:54;;;;;;;24.97;14.70;;;;;;;25.58;47.04;101497.28;5027714;28;20076;-81
2022/10/08 11:32:21;;;;;;;27.27;16.27;;;;;;;25.67;46.86;101520.47;5029029;28;20757;-82
2022/10/08 11:35:09;;;;;;;25.27;18.80;;;;;;;25.55;46.81;101516.75;5028785;28;20152;-78
2022/10/08 11:37:55;;;;;;;28.33;17.20;;;;;;;25.47;46.44;101500.69;5031113;28;20392;-82